Airfield :
LOGIN :

Register | Disclaimer

   EN    FR    IT 

 










Legend :    VFR   Marginal VFR   IFR   Intensive IFR   Very Intensive IFR
Visi :
Ceiling :
>= 8 km
>= 3000ft
5 to 8 km
1000 to 3000 ft
1500m to 5 km
500 to 1000 ft
800 to 1500m
200 to 500 ft
< 800m
< 200 ft
Symbols :   Thunderstorms  Fog  Heavy snow  Heavy precipitations  Wind > 20 kt
SIGMETs :     Misc.  Thunderstorms  Icing  Turbulence  Mountain Waves  Volcanic Ashes







- Airport Elevation : 1411 ft
- IATA code : SZG


LOWS - Salzburg

CURRENT METAR :
  • 180050Z AUTO 28005KT 230V320 9999 FEW028 BKN032 01/M04 Q1025

EXPIRED METARs :
  • 180020Z AUTO VRB02KT 9999 FEW026 BKN028 00/M04 Q1025
  • 172350Z AUTO VRB03KT 9999 FEW024 BKN030 BKN070 00/M04 Q1025
  • 172320Z AUTO 26007KT 210V310 9999 FEW022 OVC080 00/M04 Q1025
  • 172250Z AUTO 27005KT 230V300 9999 FEW020 OVC070 00/M04 Q1025
  • 172220Z AUTO 28009KT 240V320 9999 FEW026 SCT030 BKN070 00/M04 Q1025 R15/29//95
  • 172150Z 27010KT 9999 FEW010 SCT027 BKN040 01/M04 Q1025 R88///////

TAF TAF LOWS
Valid from the 18 at 00:00 until the 19 at 00:00 UTC


172315Z 1800/1824 26005KT 9999 SCT030 BKN050 TX02/1813Z TNM03/1824Z
TEMPO 1800/1804 29010KT 4000 -SHSN SCT012 BKN025
BECMG 1804/1806 16006KT
TEMPO 1812/1818 03006KT SCT050
BECMG 1818/1820 16005KT SCT050 BKN250
No reported NOTAMs for that airfield.



MET'MAP, your aeronautical weather chart ! - Copyright ORBIFLY December 2007 - Disclaimer

ORBIFLY MET'MAP TEAM :

Programming & Development : Alexandra Zaïnal
Concept & Development : Baudouin d'Aumeries
Co-Development & Prog : Marc-Olivier Méhu
Technical & hardware support : Manuel Goepfert

Contact : metmap@orbifly.com




SOURCES & CREDITS :

   NOAA